Tiberius, Israel
Current Conditions -  °F | °C
As of 7:50 PM on Thursday 30 Oct 2014 (Local Time) from LLHA Reporting Station
Few Clouds Few Clouds  
Wind Chill: 72°   Ceiling: Unl
Heat Index: 72°   Visibility: 6mi
Dew Point: 63°   Wind: 3mph
Humidity: 73%   Direction: NA
Pressure: 29.91"   Gusts: NA
Location:  32.78°N, 35.48°E
Report Text: LLHA 301650Z VRB03KT 9999 FEW030 22/17 Q1013
Loading
Personal Weather Stations






























Interactive Weather Map
Tropical Storm Tracking
New forecast layout! Learn more

10-Day Weather Forecast

Advertisements
Track Severe Weather on mobile